sensor_id;sensor_type;location;lat;lon;timestamp;pressure;altitude;pressure_sealevel;temperature
35582;BMP180;21687;48.900;9.188;2022-10-16T00:00:34;98304.00;;;14.70
35582;BMP180;21687;48.900;9.188;2022-10-16T00:03:01;98300.00;;;14.70
35582;BMP180;21687;48.900;9.188;2022-10-16T00:05:28;98302.00;;;14.80
35582;BMP180;21687;48.900;9.188;2022-10-16T00:07:54;98292.00;;;14.90
35582;BMP180;21687;48.900;9.188;2022-10-16T00:10:21;98284.00;;;14.90
35582;BMP180;21687;48.900;9.188;2022-10-16T00:12:47;98287.00;;;14.90
35582;BMP180;21687;48.900;9.188;2022-10-16T00:15:14;98285.00;;;14.90
35582;BMP180;21687;48.900;9.188;2022-10-16T00:17:40;98294.00;;;14.80
35582;BMP180;21687;48.900;9.188;2022-10-16T00:20:07;98294.00;;;14.90
35582;BMP180;21687;48.900;9.188;2022-10-16T00:22:33;98291.00;;;14.90
35582;BMP180;21687;48.900;9.188;2022-10-16T00:25:00;98283.00;;;15.00
35582;BMP180;21687;48.900;9.188;2022-10-16T00:27:26;98281.00;;;14.90
35582;BMP180;21687;48.900;9.188;2022-10-16T00:29:53;98285.00;;;14.90
35582;BMP180;21687;48.900;9.188;2022-10-16T00:32:20;98285.00;;;14.90
35582;BMP180;21687;48.900;9.188;2022-10-16T00:34:46;98293.00;;;14.90
35582;BMP180;21687;48.900;9.188;2022-10-16T00:37:13;98284.00;;;14.90
35582;BMP180;21687;48.900;9.188;2022-10-16T00:39:39;98294.00;;;14.80
35582;BMP180;21687;48.900;9.188;2022-10-16T00:42:06;98292.00;;;14.90
35582;BMP180;21687;48.900;9.188;2022-10-16T00:44:53;98297.00;;;14.80
35582;BMP180;21687;48.900;9.188;2022-10-16T00:47:41;98300.00;;;14.90
35582;BMP180;21687;48.900;9.188;2022-10-16T00:50:31;98304.00;;;14.90
35582;BMP180;21687;48.900;9.188;2022-10-16T00:52:59;98292.00;;;14.90
35582;BMP180;21687;48.900;9.188;2022-10-16T00:55:27;98298.00;;;14.90
35582;BMP180;21687;48.900;9.188;2022-10-16T00:57:56;98297.00;;;14.90
35582;BMP180;21687;48.900;9.188;2022-10-16T01:00:26;98297.00;;;15.00
35582;BMP180;21687;48.900;9.188;2022-10-16T01:05:22;98302.00;;;15.00
35582;BMP180;21687;48.900;9.188;2022-10-16T01:08:08;98313.00;;;15.10
35582;BMP180;21687;48.900;9.188;2022-10-16T01:10:52;98312.00;;;15.20
35582;BMP180;21687;48.900;9.188;2022-10-16T01:13:26;98313.00;;;15.20
35582;BMP180;21687;48.900;9.188;2022-10-16T01:16:02;98308.00;;;15.20
35582;BMP180;21687;48.900;9.188;2022-10-16T01:18:44;98310.00;;;15.20
35582;BMP180;21687;48.900;9.188;2022-10-16T01:21:13;98303.00;;;15.20
35582;BMP180;21687;48.900;9.188;2022-10-16T01:26:45;98306.00;;;15.20
35582;BMP180;21687;48.900;9.188;2022-10-16T01:29:21;98304.00;;;15.20
35582;BMP180;21687;48.900;9.188;2022-10-16T01:31:53;98301.00;;;15.10
35582;BMP180;21687;48.900;9.188;2022-10-16T01:34:31;98305.00;;;15.10
35582;BMP180;21687;48.900;9.188;2022-10-16T01:37:20;98310.00;;;15.10
35582;BMP180;21687;48.900;9.188;2022-10-16T01:39:49;98309.00;;;15.10
35582;BMP180;21687;48.900;9.188;2022-10-16T01:42:22;98310.00;;;15.10
35582;BMP180;21687;48.900;9.188;2022-10-16T01:44:51;98303.00;;;15.10
35582;BMP180;21687;48.900;9.188;2022-10-16T01:47:22;98307.00;;;15.10
35582;BMP180;21687;48.900;9.188;2022-10-16T01:49:49;98294.00;;;14.90
35582;BMP180;21687;48.900;9.188;2022-10-16T01:52:19;98303.00;;;15.00
35582;BMP180;21687;48.900;9.188;2022-10-16T01:54:49;98309.00;;;14.90
35582;BMP180;21687;48.900;9.188;2022-10-16T01:57:17;98304.00;;;15.00
35582;BMP180;21687;48.900;9.188;2022-10-16T01:59:48;98294.00;;;15.00
35582;BMP180;21687;48.900;9.188;2022-10-16T02:02:18;98294.00;;;15.00
35582;BMP180;21687;48.900;9.188;2022-10-16T02:04:51;98280.00;;;15.10
35582;BMP180;21687;48.900;9.188;2022-10-16T02:07:19;98290.00;;;15.10
35582;BMP180;21687;48.900;9.188;2022-10-16T02:09:45;98291.00;;;15.10
35582;BMP180;21687;48.900;9.188;2022-10-16T02:12:28;98289.00;;;15.10
35582;BMP180;21687;48.900;9.188;2022-10-16T02:14:56;98306.00;;;15.10
35582;BMP180;21687;48.900;9.188;2022-10-16T02:17:23;98298.00;;;15.20
35582;BMP180;21687;48.900;9.188;2022-10-16T02:19:52;98296.00;;;15.20
35582;BMP180;21687;48.900;9.188;2022-10-16T02:25:17;98301.00;;;15.20
35582;BMP180;21687;48.900;9.188;2022-10-16T02:33:02;98291.00;;;15.20
35582;BMP180;21687;48.900;9.188;2022-10-16T02:35:30;98299.00;;;15.10
35582;BMP180;21687;48.900;9.188;2022-10-16T02:37:57;98297.00;;;15.20
35582;BMP180;21687;48.900;9.188;2022-10-16T02:40:24;98299.00;;;15.20
35582;BMP180;21687;48.900;9.188;2022-10-16T02:42:53;98300.00;;;15.10
35582;BMP180;21687;48.900;9.188;2022-10-16T02:45:19;98307.00;;;15.20
35582;BMP180;21687;48.900;9.188;2022-10-16T02:47:46;98302.00;;;15.10
35582;BMP180;21687;48.900;9.188;2022-10-16T02:50:12;98314.00;;;15.10
35582;BMP180;21687;48.900;9.188;2022-10-16T02:52:39;98308.00;;;15.10
35582;BMP180;21687;48.900;9.188;2022-10-16T02:55:05;98314.00;;;15.10
35582;BMP180;21687;48.900;9.188;2022-10-16T02:57:31;98303.00;;;15.10
35582;BMP180;21687;48.900;9.188;2022-10-16T02:59:58;98313.00;;;15.10
35582;BMP180;21687;48.900;9.188;2022-10-16T03:02:24;98315.00;;;15.00
35582;BMP180;21687;48.900;9.188;2022-10-16T03:04:50;98317.00;;;15.00
35582;BMP180;21687;48.900;9.188;2022-10-16T03:07:17;98313.00;;;14.90
35582;BMP180;21687;48.900;9.188;2022-10-16T03:09:43;98316.00;;;14.90
35582;BMP180;21687;48.900;9.188;2022-10-16T03:12:09;98315.00;;;14.90
35582;BMP180;21687;48.900;9.188;2022-10-16T03:14:37;98316.00;;;14.80
35582;BMP180;21687;48.900;9.188;2022-10-16T03:17:05;98316.00;;;14.80
35582;BMP180;21687;48.900;9.188;2022-10-16T03:19:32;98322.00;;;14.70
35582;BMP180;21687;48.900;9.188;2022-10-16T03:21:58;98314.00;;;14.70
35582;BMP180;21687;48.900;9.188;2022-10-16T03:24:24;98310.00;;;14.70
35582;BMP180;21687;48.900;9.188;2022-10-16T03:26:51;98303.00;;;14.70
35582;BMP180;21687;48.900;9.188;2022-10-16T03:29:17;98312.00;;;14.70
35582;BMP180;21687;48.900;9.188;2022-10-16T03:31:43;98311.00;;;14.60
35582;BMP180;21687;48.900;9.188;2022-10-16T03:34:09;98314.00;;;14.50
35582;BMP180;21687;48.900;9.188;2022-10-16T03:36:35;98308.00;;;14.50
35582;BMP180;21687;48.900;9.188;2022-10-16T03:39:02;98314.00;;;14.40
35582;BMP180;21687;48.900;9.188;2022-10-16T03:41:28;98321.00;;;14.40
35582;BMP180;21687;48.900;9.188;2022-10-16T03:43:54;98325.00;;;14.40
35582;BMP180;21687;48.900;9.188;2022-10-16T03:46:21;98313.00;;;14.40
35582;BMP180;21687;48.900;9.188;2022-10-16T03:48:47;98314.00;;;14.40
35582;BMP180;21687;48.900;9.188;2022-10-16T03:51:13;98313.00;;;14.40
35582;BMP180;21687;48.900;9.188;2022-10-16T03:53:39;98304.00;;;14.40
35582;BMP180;21687;48.900;9.188;2022-10-16T03:56:06;98316.00;;;14.40
35582;BMP180;21687;48.900;9.188;2022-10-16T03:58:33;98328.00;;;14.40
35582;BMP180;21687;48.900;9.188;2022-10-16T04:00:59;98318.00;;;14.40
35582;BMP180;21687;48.900;9.188;2022-10-16T04:03:25;98321.00;;;14.40
35582;BMP180;21687;48.900;9.188;2022-10-16T04:05:51;98322.00;;;14.40
35582;BMP180;21687;48.900;9.188;2022-10-16T04:08:17;98314.00;;;14.40
35582;BMP180;21687;48.900;9.188;2022-10-16T04:10:44;98312.00;;;14.40
35582;BMP180;21687;48.900;9.188;2022-10-16T04:13:11;98314.00;;;14.30
35582;BMP180;21687;48.900;9.188;2022-10-16T04:15:37;98321.00;;;14.30
35582;BMP180;21687;48.900;9.188;2022-10-16T04:18:04;98319.00;;;14.40
35582;BMP180;21687;48.900;9.188;2022-10-16T04:20:30;98318.00;;;14.40
35582;BMP180;21687;48.900;9.188;2022-10-16T04:22:56;98329.00;;;14.30
35582;BMP180;21687;48.900;9.188;2022-10-16T04:25:23;98329.00;;;14.30
35582;BMP180;21687;48.900;9.188;2022-10-16T04:27:49;98328.00;;;14.30
35582;BMP180;21687;48.900;9.188;2022-10-16T04:30:15;98320.00;;;14.20
35582;BMP180;21687;48.900;9.188;2022-10-16T04:32:41;98322.00;;;14.20
35582;BMP180;21687;48.900;9.188;2022-10-16T04:35:08;98323.00;;;14.30
35582;BMP180;21687;48.900;9.188;2022-10-16T04:37:34;98329.00;;;14.30
35582;BMP180;21687;48.900;9.188;2022-10-16T04:40:01;98337.00;;;14.30
35582;BMP180;21687;48.900;9.188;2022-10-16T04:42:27;98339.00;;;14.30
35582;BMP180;21687;48.900;9.188;2022-10-16T04:44:53;98337.00;;;14.30
35582;BMP180;21687;48.900;9.188;2022-10-16T04:47:19;98336.00;;;14.30
35582;BMP180;21687;48.900;9.188;2022-10-16T04:49:46;98337.00;;;14.30
35582;BMP180;21687;48.900;9.188;2022-10-16T04:52:12;98336.00;;;14.20
35582;BMP180;21687;48.900;9.188;2022-10-16T04:54:38;98355.00;;;14.20
35582;BMP180;21687;48.900;9.188;2022-10-16T04:57:04;98358.00;;;14.20
35582;BMP180;21687;48.900;9.188;2022-10-16T04:59:31;98369.00;;;14.20
35582;BMP180;21687;48.900;9.188;2022-10-16T05:01:57;98364.00;;;14.20
35582;BMP180;21687;48.900;9.188;2022-10-16T05:04:23;98368.00;;;14.20
35582;BMP180;21687;48.900;9.188;2022-10-16T05:06:49;98377.00;;;14.20
35582;BMP180;21687;48.900;9.188;2022-10-16T05:09:16;98374.00;;;14.20
35582;BMP180;21687;48.900;9.188;2022-10-16T05:11:42;98366.00;;;14.30
35582;BMP180;21687;48.900;9.188;2022-10-16T05:14:08;98368.00;;;14.20
35582;BMP180;21687;48.900;9.188;2022-10-16T05:16:35;98370.00;;;14.10
35582;BMP180;21687;48.900;9.188;2022-10-16T05:19:01;98363.00;;;14.10
35582;BMP180;21687;48.900;9.188;2022-10-16T05:21:27;98360.00;;;14.00
35582;BMP180;21687;48.900;9.188;2022-10-16T05:23:54;98357.00;;;14.00
35582;BMP180;21687;48.900;9.188;2022-10-16T05:26:21;98364.00;;;14.00
35582;BMP180;21687;48.900;9.188;2022-10-16T05:28:48;98360.00;;;13.80
35582;BMP180;21687;48.900;9.188;2022-10-16T05:31:15;98369.00;;;13.80
35582;BMP180;21687;48.900;9.188;2022-10-16T05:33:41;98368.00;;;13.80
35582;BMP180;21687;48.900;9.188;2022-10-16T05:36:08;98365.00;;;13.80
35582;BMP180;21687;48.900;9.188;2022-10-16T05:38:36;98367.00;;;13.70
35582;BMP180;21687;48.900;9.188;2022-10-16T05:41:04;98373.00;;;13.70
35582;BMP180;21687;48.900;9.188;2022-10-16T05:43:31;98380.00;;;13.60
35582;BMP180;21687;48.900;9.188;2022-10-16T05:46:00;98381.00;;;13.60
35582;BMP180;21687;48.900;9.188;2022-10-16T05:48:27;98374.00;;;13.60
35582;BMP180;21687;48.900;9.188;2022-10-16T05:53:24;98383.00;;;13.60
35582;BMP180;21687;48.900;9.188;2022-10-16T05:55:58;98390.00;;;13.60
35582;BMP180;21687;48.900;9.188;2022-10-16T05:58:27;98385.00;;;13.60
35582;BMP180;21687;48.900;9.188;2022-10-16T06:00:59;98400.00;;;13.70
35582;BMP180;21687;48.900;9.188;2022-10-16T06:03:26;98389.00;;;13.60
35582;BMP180;21687;48.900;9.188;2022-10-16T06:05:53;98393.00;;;13.60
35582;BMP180;21687;48.900;9.188;2022-10-16T06:08:21;98399.00;;;13.60
35582;BMP180;21687;48.900;9.188;2022-10-16T06:10:48;98404.00;;;13.60
35582;BMP180;21687;48.900;9.188;2022-10-16T06:13:15;98399.00;;;13.60
35582;BMP180;21687;48.900;9.188;2022-10-16T06:15:42;98384.00;;;13.60
35582;BMP180;21687;48.900;9.188;2022-10-16T06:18:09;98390.00;;;13.70
35582;BMP180;21687;48.900;9.188;2022-10-16T06:20:36;98387.00;;;13.70
35582;BMP180;21687;48.900;9.188;2022-10-16T06:23:03;98400.00;;;13.70
35582;BMP180;21687;48.900;9.188;2022-10-16T06:25:31;98401.00;;;13.80
35582;BMP180;21687;48.900;9.188;2022-10-16T06:27:57;98400.00;;;13.80
35582;BMP180;21687;48.900;9.188;2022-10-16T06:30:24;98396.00;;;13.80
35582;BMP180;21687;48.900;9.188;2022-10-16T06:32:50;98399.00;;;13.90
35582;BMP180;21687;48.900;9.188;2022-10-16T06:35:16;98410.00;;;13.80
35582;BMP180;21687;48.900;9.188;2022-10-16T06:37:43;98410.00;;;13.80
35582;BMP180;21687;48.900;9.188;2022-10-16T06:40:09;98407.00;;;13.80
35582;BMP180;21687;48.900;9.188;2022-10-16T06:42:35;98410.00;;;13.90
35582;BMP180;21687;48.900;9.188;2022-10-16T06:45:02;98407.00;;;13.90
35582;BMP180;21687;48.900;9.188;2022-10-16T06:47:28;98414.00;;;14.00
35582;BMP180;21687;48.900;9.188;2022-10-16T06:49:54;98424.00;;;14.10
35582;BMP180;21687;48.900;9.188;2022-10-16T06:52:21;98430.00;;;14.10
35582;BMP180;21687;48.900;9.188;2022-10-16T06:54:47;98430.00;;;14.20
35582;BMP180;21687;48.900;9.188;2022-10-16T06:57:16;98428.00;;;14.30
35582;BMP180;21687;48.900;9.188;2022-10-16T06:59:42;98440.00;;;14.40
35582;BMP180;21687;48.900;9.188;2022-10-16T07:02:09;98448.00;;;14.50
35582;BMP180;21687;48.900;9.188;2022-10-16T07:04:36;98459.00;;;14.60
35582;BMP180;21687;48.900;9.188;2022-10-16T07:07:03;98457.00;;;14.70
35582;BMP180;21687;48.900;9.188;2022-10-16T07:09:30;98454.00;;;14.80
35582;BMP180;21687;48.900;9.188;2022-10-16T07:11:56;98459.00;;;14.90
35582;BMP180;21687;48.900;9.188;2022-10-16T07:14:23;98456.00;;;15.00
35582;BMP180;21687;48.900;9.188;2022-10-16T07:16:49;98470.00;;;15.10
35582;BMP180;21687;48.900;9.188;2022-10-16T07:19:34;98468.00;;;15.10
35582;BMP180;21687;48.900;9.188;2022-10-16T07:22:04;98475.00;;;15.10
35582;BMP180;21687;48.900;9.188;2022-10-16T07:24:31;98478.00;;;15.10
35582;BMP180;21687;48.900;9.188;2022-10-16T07:26:59;98477.00;;;15.10
35582;BMP180;21687;48.900;9.188;2022-10-16T07:29:28;98479.00;;;15.10
35582;BMP180;21687;48.900;9.188;2022-10-16T07:31:57;98483.00;;;15.00
35582;BMP180;21687;48.900;9.188;2022-10-16T07:34:26;98490.00;;;15.00
35582;BMP180;21687;48.900;9.188;2022-10-16T07:36:53;98486.00;;;15.00
35582;BMP180;21687;48.900;9.188;2022-10-16T07:39:19;98499.00;;;15.00
35582;BMP180;21687;48.900;9.188;2022-10-16T07:41:46;98492.00;;;15.00
35582;BMP180;21687;48.900;9.188;2022-10-16T07:44:12;98491.00;;;15.00
35582;BMP180;21687;48.900;9.188;2022-10-16T07:46:38;98487.00;;;15.00
35582;BMP180;21687;48.900;9.188;2022-10-16T07:49:05;98492.00;;;15.00
35582;BMP180;21687;48.900;9.188;2022-10-16T07:51:31;98488.00;;;15.10
35582;BMP180;21687;48.900;9.188;2022-10-16T07:53:58;98489.00;;;15.20
35582;BMP180;21687;48.900;9.188;2022-10-16T07:56:24;98489.00;;;15.30
35582;BMP180;21687;48.900;9.188;2022-10-16T07:58:51;98495.00;;;15.50
35582;BMP180;21687;48.900;9.188;2022-10-16T08:01:18;98489.00;;;15.60
35582;BMP180;21687;48.900;9.188;2022-10-16T08:03:46;98496.00;;;15.80
35582;BMP180;21687;48.900;9.188;2022-10-16T08:06:13;98502.00;;;16.00
35582;BMP180;21687;48.900;9.188;2022-10-16T08:08:40;98504.00;;;16.30
35582;BMP180;21687;48.900;9.188;2022-10-16T08:11:06;98496.00;;;16.40
35582;BMP180;21687;48.900;9.188;2022-10-16T08:13:33;98509.00;;;16.60
35582;BMP180;21687;48.900;9.188;2022-10-16T08:15:59;98510.00;;;16.60
35582;BMP180;21687;48.900;9.188;2022-10-16T08:18:26;98509.00;;;16.80
35582;BMP180;21687;48.900;9.188;2022-10-16T08:20:56;98513.00;;;16.90
35582;BMP180;21687;48.900;9.188;2022-10-16T08:23:24;98508.00;;;17.20
35582;BMP180;21687;48.900;9.188;2022-10-16T08:25:52;98504.00;;;17.30
35582;BMP180;21687;48.900;9.188;2022-10-16T08:28:20;98519.00;;;17.50
35582;BMP180;21687;48.900;9.188;2022-10-16T08:30:46;98522.00;;;17.50
35582;BMP180;21687;48.900;9.188;2022-10-16T08:33:13;98530.00;;;17.70
35582;BMP180;21687;48.900;9.188;2022-10-16T08:35:39;98540.00;;;17.80
35582;BMP180;21687;48.900;9.188;2022-10-16T08:38:06;98531.00;;;17.80
35582;BMP180;21687;48.900;9.188;2022-10-16T08:40:34;98543.00;;;17.70
35582;BMP180;21687;48.900;9.188;2022-10-16T08:46:04;98543.00;;;17.90
35582;BMP180;21687;48.900;9.188;2022-10-16T08:48:50;98540.00;;;17.90
35582;BMP180;21687;48.900;9.188;2022-10-16T08:51:27;98540.00;;;17.90
35582;BMP180;21687;48.900;9.188;2022-10-16T08:54:08;98530.00;;;18.00
35582;BMP180;21687;48.900;9.188;2022-10-16T08:56:36;98530.00;;;18.20
35582;BMP180;21687;48.900;9.188;2022-10-16T08:59:06;98543.00;;;18.20
35582;BMP180;21687;48.900;9.188;2022-10-16T09:01:46;98535.00;;;18.20
35582;BMP180;21687;48.900;9.188;2022-10-16T09:07:32;98534.00;;;18.30
35582;BMP180;21687;48.900;9.188;2022-10-16T09:12:40;98541.00;;;18.30
35582;BMP180;21687;48.900;9.188;2022-10-16T09:21:10;98563.00;;;18.30
35582;BMP180;21687;48.900;9.188;2022-10-16T09:23:39;98560.00;;;18.20
35582;BMP180;21687;48.900;9.188;2022-10-16T09:26:11;98558.00;;;18.30
35582;BMP180;21687;48.900;9.188;2022-10-16T09:28:38;98557.00;;;18.20
35582;BMP180;21687;48.900;9.188;2022-10-16T09:31:04;98569.00;;;18.30
35582;BMP180;21687;48.900;9.188;2022-10-16T09:33:34;98580.00;;;18.10
35582;BMP180;21687;48.900;9.188;2022-10-16T09:36:04;98578.00;;;18.20
35582;BMP180;21687;48.900;9.188;2022-10-16T09:38:36;98587.00;;;18.20
35582;BMP180;21687;48.900;9.188;2022-10-16T09:41:20;98592.00;;;18.30
35582;BMP180;21687;48.900;9.188;2022-10-16T09:43:52;98593.00;;;18.30
35582;BMP180;21687;48.900;9.188;2022-10-16T09:46:26;98595.00;;;18.30
35582;BMP180;21687;48.900;9.188;2022-10-16T09:48:56;98596.00;;;18.40
35582;BMP180;21687;48.900;9.188;2022-10-16T09:51:29;98588.00;;;18.70
35582;BMP180;21687;48.900;9.188;2022-10-16T09:53:59;98591.00;;;18.90
35582;BMP180;21687;48.900;9.188;2022-10-16T09:56:31;98592.00;;;19.10
35582;BMP180;21687;48.900;9.188;2022-10-16T09:59:12;98590.00;;;19.20
35582;BMP180;21687;48.900;9.188;2022-10-16T10:01:48;98599.00;;;19.10
35582;BMP180;21687;48.900;9.188;2022-10-16T10:04:17;98603.00;;;19.10
35582;BMP180;21687;48.900;9.188;2022-10-16T10:11:50;98612.00;;;19.00
35582;BMP180;21687;48.900;9.188;2022-10-16T10:14:47;98620.00;;;19.10
35582;BMP180;21687;48.900;9.188;2022-10-16T10:19:51;98619.00;;;19.10
35582;BMP180;21687;48.900;9.188;2022-10-16T10:25:26;98621.00;;;19.50
35582;BMP180;21687;48.900;9.188;2022-10-16T10:31:06;98621.00;;;20.30
35582;BMP180;21687;48.900;9.188;2022-10-16T10:34:01;98626.00;;;20.60
35582;BMP180;21687;48.900;9.188;2022-10-16T10:36:37;98629.00;;;20.90
35582;BMP180;21687;48.900;9.188;2022-10-16T10:39:28;98629.00;;;21.10
35582;BMP180;21687;48.900;9.188;2022-10-16T10:42:12;98627.00;;;21.20
35582;BMP180;21687;48.900;9.188;2022-10-16T10:45:04;98626.00;;;21.40
35582;BMP180;21687;48.900;9.188;2022-10-16T10:47:47;98619.00;;;21.40
35582;BMP180;21687;48.900;9.188;2022-10-16T10:53:24;98630.00;;;21.90
35582;BMP180;21687;48.900;9.188;2022-10-16T10:56:34;98626.00;;;22.20
35582;BMP180;21687;48.900;9.188;2022-10-16T11:02:04;98630.00;;;22.60
35582;BMP180;21687;48.900;9.188;2022-10-16T11:11:01;98631.00;;;23.00
35582;BMP180;21687;48.900;9.188;2022-10-16T11:13:49;98619.00;;;22.90
35582;BMP180;21687;48.900;9.188;2022-10-16T11:16:30;98616.00;;;23.00
35582;BMP180;21687;48.900;9.188;2022-10-16T11:21:34;98619.00;;;22.30
35582;BMP180;21687;48.900;9.188;2022-10-16T11:24:26;98614.00;;;22.00
35582;BMP180;21687;48.900;9.188;2022-10-16T11:27:01;98612.00;;;22.00
35582;BMP180;21687;48.900;9.188;2022-10-16T11:29:31;98618.00;;;21.90
35582;BMP180;21687;48.900;9.188;2022-10-16T11:32:11;98616.00;;;21.80
35582;BMP180;21687;48.900;9.188;2022-10-16T11:35:11;98613.00;;;21.50
35582;BMP180;21687;48.900;9.188;2022-10-16T11:37:43;98608.00;;;21.50
35582;BMP180;21687;48.900;9.188;2022-10-16T11:40:31;98615.00;;;21.60
35582;BMP180;21687;48.900;9.188;2022-10-16T11:46:08;98622.00;;;21.80
35582;BMP180;21687;48.900;9.188;2022-10-16T11:51:23;98625.00;;;21.60
35582;BMP180;21687;48.900;9.188;2022-10-16T11:56:23;98621.00;;;21.60
35582;BMP180;21687;48.900;9.188;2022-10-16T11:59:01;98626.00;;;21.60
35582;BMP180;21687;48.900;9.188;2022-10-16T12:01:41;98620.00;;;21.90
35582;BMP180;21687;48.900;9.188;2022-10-16T12:04:14;98622.00;;;22.00
35582;BMP180;21687;48.900;9.188;2022-10-16T12:09:32;98611.00;;;22.30
35582;BMP180;21687;48.900;9.188;2022-10-16T12:12:00;98610.00;;;22.20
35582;BMP180;21687;48.900;9.188;2022-10-16T12:17:22;98613.00;;;22.00
35582;BMP180;21687;48.900;9.188;2022-10-16T12:25:33;98611.00;;;21.50
35582;BMP180;21687;48.900;9.188;2022-10-16T12:30:41;98612.00;;;21.70
35582;BMP180;21687;48.900;9.188;2022-10-16T12:33:25;98613.00;;;21.80
35582;BMP180;21687;48.900;9.188;2022-10-16T12:35:52;98612.00;;;21.80
35582;BMP180;21687;48.900;9.188;2022-10-16T12:38:21;98606.00;;;21.60
35582;BMP180;21687;48.900;9.188;2022-10-16T12:43:37;98610.00;;;21.40
35582;BMP180;21687;48.900;9.188;2022-10-16T12:48:36;98614.00;;;21.50
35582;BMP180;21687;48.900;9.188;2022-10-16T12:54:22;98619.00;;;21.70
35582;BMP180;21687;48.900;9.188;2022-10-16T13:06:51;98631.00;;;21.70
35582;BMP180;21687;48.900;9.188;2022-10-16T13:25:26;98636.00;;;22.10
35582;BMP180;21687;48.900;9.188;2022-10-16T13:27:59;98634.00;;;22.10
35582;BMP180;21687;48.900;9.188;2022-10-16T13:30:28;98634.00;;;22.10
35582;BMP180;21687;48.900;9.188;2022-10-16T13:35:31;98634.00;;;22.20
35582;BMP180;21687;48.900;9.188;2022-10-16T13:38:13;98638.00;;;22.30
35582;BMP180;21687;48.900;9.188;2022-10-16T13:41:00;98650.00;;;22.40
35582;BMP180;21687;48.900;9.188;2022-10-16T13:48:39;98635.00;;;22.40
35582;BMP180;21687;48.900;9.188;2022-10-16T13:51:14;98646.00;;;22.40
35582;BMP180;21687;48.900;9.188;2022-10-16T13:53:41;98646.00;;;22.20
35582;BMP180;21687;48.900;9.188;2022-10-16T13:56:12;98639.00;;;22.10
35582;BMP180;21687;48.900;9.188;2022-10-16T13:58:39;98631.00;;;22.30
35582;BMP180;21687;48.900;9.188;2022-10-16T14:01:26;98630.00;;;22.30
35582;BMP180;21687;48.900;9.188;2022-10-16T14:04:07;98633.00;;;22.10
35582;BMP180;21687;48.900;9.188;2022-10-16T14:06:36;98628.00;;;21.70
35582;BMP180;21687;48.900;9.188;2022-10-16T14:09:06;98639.00;;;21.60
35582;BMP180;21687;48.900;9.188;2022-10-16T14:11:42;98628.00;;;21.40
35582;BMP180;21687;48.900;9.188;2022-10-16T14:14:12;98634.00;;;21.40
35582;BMP180;21687;48.900;9.188;2022-10-16T14:16:41;98632.00;;;21.30
35582;BMP180;21687;48.900;9.188;2022-10-16T14:19:48;98642.00;;;21.40
35582;BMP180;21687;48.900;9.188;2022-10-16T14:22:37;98635.00;;;21.40
35582;BMP180;21687;48.900;9.188;2022-10-16T14:25:28;98639.00;;;21.40
35582;BMP180;21687;48.900;9.188;2022-10-16T14:30:54;98632.00;;;21.40
35582;BMP180;21687;48.900;9.188;2022-10-16T14:36:05;98648.00;;;21.60
35582;BMP180;21687;48.900;9.188;2022-10-16T14:38:33;98651.00;;;21.50
35582;BMP180;21687;48.900;9.188;2022-10-16T14:41:00;98645.00;;;21.50
35582;BMP180;21687;48.900;9.188;2022-10-16T14:43:32;98637.00;;;21.50
35582;BMP180;21687;48.900;9.188;2022-10-16T14:46:00;98639.00;;;21.60
35582;BMP180;21687;48.900;9.188;2022-10-16T14:48:27;98647.00;;;21.60
35582;BMP180;21687;48.900;9.188;2022-10-16T14:50:54;98635.00;;;21.70
35582;BMP180;21687;48.900;9.188;2022-10-16T14:56:54;98647.00;;;21.80
35582;BMP180;21687;48.900;9.188;2022-10-16T14:59:39;98653.00;;;21.80
35582;BMP180;21687;48.900;9.188;2022-10-16T15:02:31;98647.00;;;21.70
35582;BMP180;21687;48.900;9.188;2022-10-16T15:05:01;98649.00;;;21.50
35582;BMP180;21687;48.900;9.188;2022-10-16T15:07:31;98645.00;;;21.40
35582;BMP180;21687;48.900;9.188;2022-10-16T15:09:57;98639.00;;;21.40
35582;BMP180;21687;48.900;9.188;2022-10-16T15:12:24;98646.00;;;21.40
35582;BMP180;21687;48.900;9.188;2022-10-16T15:14:50;98647.00;;;21.40
35582;BMP180;21687;48.900;9.188;2022-10-16T15:17:17;98650.00;;;21.40
35582;BMP180;21687;48.900;9.188;2022-10-16T15:19:43;98651.00;;;21.30
35582;BMP180;21687;48.900;9.188;2022-10-16T15:22:11;98649.00;;;21.30
35582;BMP180;21687;48.900;9.188;2022-10-16T15:24:38;98643.00;;;21.10
35582;BMP180;21687;48.900;9.188;2022-10-16T15:30:27;98633.00;;;20.80
35582;BMP180;21687;48.900;9.188;2022-10-16T15:32:54;98648.00;;;20.80
35582;BMP180;21687;48.900;9.188;2022-10-16T15:35:20;98645.00;;;20.70
35582;BMP180;21687;48.900;9.188;2022-10-16T15:37:47;98648.00;;;20.60
35582;BMP180;21687;48.900;9.188;2022-10-16T15:40:16;98647.00;;;20.60
35582;BMP180;21687;48.900;9.188;2022-10-16T15:42:42;98646.00;;;20.60
35582;BMP180;21687;48.900;9.188;2022-10-16T15:45:10;98652.00;;;20.50
35582;BMP180;21687;48.900;9.188;2022-10-16T15:47:36;98653.00;;;20.60
35582;BMP180;21687;48.900;9.188;2022-10-16T15:50:03;98652.00;;;20.60
35582;BMP180;21687;48.900;9.188;2022-10-16T15:52:30;98656.00;;;20.70
35582;BMP180;21687;48.900;9.188;2022-10-16T15:54:58;98661.00;;;20.70
35582;BMP180;21687;48.900;9.188;2022-10-16T15:57:24;98660.00;;;20.60
35582;BMP180;21687;48.900;9.188;2022-10-16T15:59:51;98664.00;;;20.60
35582;BMP180;21687;48.900;9.188;2022-10-16T16:02:17;98658.00;;;20.60
35582;BMP180;21687;48.900;9.188;2022-10-16T16:04:43;98654.00;;;20.50
35582;BMP180;21687;48.900;9.188;2022-10-16T16:07:28;98650.00;;;20.40
35582;BMP180;21687;48.900;9.188;2022-10-16T16:09:54;98656.00;;;20.30
35582;BMP180;21687;48.900;9.188;2022-10-16T16:12:21;98645.00;;;20.20
35582;BMP180;21687;48.900;9.188;2022-10-16T16:14:47;98652.00;;;20.10
35582;BMP180;21687;48.900;9.188;2022-10-16T16:17:15;98645.00;;;20.00
35582;BMP180;21687;48.900;9.188;2022-10-16T16:19:41;98656.00;;;20.00
35582;BMP180;21687;48.900;9.188;2022-10-16T16:22:07;98663.00;;;19.80
35582;BMP180;21687;48.900;9.188;2022-10-16T16:24:33;98654.00;;;19.80
35582;BMP180;21687;48.900;9.188;2022-10-16T16:27:00;98656.00;;;19.70
35582;BMP180;21687;48.900;9.188;2022-10-16T16:29:26;98660.00;;;19.70
35582;BMP180;21687;48.900;9.188;2022-10-16T16:31:52;98661.00;;;19.60
35582;BMP180;21687;48.900;9.188;2022-10-16T16:34:24;98662.00;;;19.60
35582;BMP180;21687;48.900;9.188;2022-10-16T16:36:50;98654.00;;;19.50
35582;BMP180;21687;48.900;9.188;2022-10-16T16:39:17;98658.00;;;19.40
35582;BMP180;21687;48.900;9.188;2022-10-16T16:41:43;98651.00;;;19.40